createdAt,value
2017-07-29T00:00:35.343Z,1012.07
2017-07-29T00:01:45.198Z,1012.06
2017-07-29T00:02:54.086Z,1012.06
2017-07-29T00:04:03.621Z,1012.08
2017-07-29T00:05:13.213Z,1012.04
2017-07-29T00:06:22.093Z,1012.07
2017-07-29T00:07:31.947Z,1012.05
2017-07-29T00:08:41.511Z,1011.99
2017-07-29T00:09:50.716Z,1012.02
2017-07-29T00:10:59.653Z,1012
2017-07-29T00:12:08.867Z,1012.02
2017-07-29T00:13:18.396Z,1012.02
2017-07-29T00:14:27.601Z,1012.03
2017-07-29T00:15:37.127Z,1012
2017-07-29T00:16:46.654Z,1012.04
2017-07-29T00:17:55.535Z,1012.03
2017-07-29T00:19:05.065Z,1012.04
2017-07-29T00:20:14.279Z,1012.04
2017-07-29T00:21:24.137Z,1012.02
2017-07-29T00:22:34.005Z,1012.04
2017-07-29T00:23:43.209Z,1012.02
2017-07-29T00:24:52.749Z,1011.99
2017-07-29T00:26:01.629Z,1011.98
2017-07-29T00:27:11.163Z,1011.96
2017-07-29T00:28:20.346Z,1011.97
2017-07-29T00:29:30.222Z,1011.99
2017-07-29T00:30:39.752Z,1011.99
2017-07-29T00:31:48.955Z,1011.99
2017-07-29T00:32:58.157Z,1011.99
2017-07-29T00:34:07.789Z,1011.96
2017-07-29T00:35:17.643Z,1011.93
2017-07-29T00:36:27.497Z,1011.9
2017-07-29T00:37:36.705Z,1011.87
2017-07-29T00:38:46.237Z,1011.88
2017-07-29T00:39:55.440Z,1011.88
2017-07-29T00:41:04.327Z,1011.9
2017-07-29T00:42:13.532Z,1011.85
2017-07-29T00:43:23.061Z,1011.85
2017-07-29T00:44:32.594Z,1011.87
2017-07-29T00:45:41.856Z,1011.83
2017-07-29T00:46:51.706Z,1011.84
2017-07-29T00:48:00.917Z,1011.85
2017-07-29T00:49:10.774Z,1011.85
2017-07-29T00:50:20.298Z,1011.86
2017-07-29T00:51:29.620Z,1011.83
2017-07-29T00:52:38.824Z,1011.81
2017-07-29T00:53:48.028Z,1011.83
2017-07-29T00:54:57.231Z,1011.86
2017-07-29T00:56:06.437Z,1011.83
2017-07-29T00:57:15.527Z,1011.84
2017-07-29T00:58:25.055Z,1011.74
2017-07-29T00:59:34.583Z,1011.76
2017-07-29T01:00:44.114Z,1011.79
2017-07-29T01:01:53.643Z,1011.74
2017-07-29T01:03:03.169Z,1011.71
2017-07-29T01:04:12.374Z,1011.74
2017-07-29T01:05:21.912Z,1011.79
2017-07-29T01:06:31.771Z,1011.8
2017-07-29T01:07:41.297Z,1011.75
2017-07-29T01:08:51.202Z,1011.79
2017-07-29T01:10:00.413Z,1011.76
2017-07-29T01:11:09.941Z,1011.78
2017-07-29T01:12:18.828Z,1011.77
2017-07-29T01:13:28.034Z,1011.75
2017-07-29T01:14:37.388Z,1011.8
2017-07-29T01:15:46.912Z,1011.82
2017-07-29T01:16:56.116Z,1011.82
2017-07-29T01:18:04.998Z,1011.77
2017-07-29T01:19:14.527Z,1011.76
2017-07-29T01:20:24.107Z,1011.73
2017-07-29T01:21:33.639Z,1011.7
2017-07-29T01:22:43.165Z,1011.67
2017-07-29T01:23:52.369Z,1011.66
2017-07-29T01:25:01.901Z,1011.69
2017-07-29T01:26:11.431Z,1011.69
2017-07-29T01:27:21.614Z,1011.73
2017-07-29T01:28:30.501Z,1011.69
2017-07-29T01:29:40.044Z,1011.69
2017-07-29T01:30:49.246Z,1011.65
2017-07-29T01:31:58.879Z,1011.65
2017-07-29T01:33:08.084Z,1011.64
2017-07-29T01:34:17.292Z,1011.67
2017-07-29T01:35:26.822Z,1011.68
2017-07-29T01:36:36.028Z,1011.65
2017-07-29T01:37:45.861Z,1011.66
2017-07-29T01:38:55.074Z,1011.63
2017-07-29T01:40:04.604Z,1011.64
2017-07-29T01:41:13.809Z,1011.6
2017-07-29T01:42:23.344Z,1011.58
2017-07-29T01:43:32.673Z,1011.54
2017-07-29T01:44:41.881Z,1011.57
2017-07-29T01:45:51.745Z,1011.57
2017-07-29T01:47:01.277Z,1011.61
2017-07-29T01:48:10.160Z,1011.59
2017-07-29T01:49:19.467Z,1011.57
2017-07-29T01:50:28.669Z,1011.63
2017-07-29T01:51:38.197Z,1011.59
2017-07-29T01:52:47.728Z,1011.57
2017-07-29T01:53:56.932Z,1011.57
2017-07-29T01:55:06.883Z,1011.6
2017-07-29T01:56:16.410Z,1011.54
2017-07-29T01:57:25.620Z,1011.59
2017-07-29T01:58:34.509Z,1011.56
2017-07-29T01:59:43.712Z,1011.53
2017-07-29T02:00:53.713Z,1011.51
2017-07-29T02:02:02.920Z,1011.56
2017-07-29T02:03:12.499Z,1011.46
2017-07-29T02:04:21.705Z,1011.43
2017-07-29T02:05:30.588Z,1011.43
2017-07-29T02:06:39.620Z,1011.33
2017-07-29T02:07:48.828Z,1011.27
2017-07-29T02:08:58.031Z,1011.3
2017-07-29T02:10:07.882Z,1011.3
2017-07-29T02:11:17.413Z,1011.28
2017-07-29T02:12:27.892Z,1011.22
2017-07-29T02:13:36.776Z,1011.23
2017-07-29T02:14:45.663Z,1011.22
2017-07-29T02:15:55.194Z,1011.23
2017-07-29T02:17:05.041Z,1011.26
2017-07-29T02:18:14.972Z,1011.22
2017-07-29T02:19:24.501Z,1011.26
2017-07-29T02:20:34.027Z,1011.23
2017-07-29T02:21:43.880Z,1011.19
2017-07-29T02:22:53.410Z,1011.16
2017-07-29T02:24:02.766Z,1011.15
2017-07-29T02:25:12.000Z,1011.11
2017-07-29T02:26:21.858Z,1011.11
2017-07-29T02:27:31.080Z,1011.07
2017-07-29T02:28:40.283Z,1011.06
2017-07-29T02:29:49.966Z,1010.95
2017-07-29T02:30:58.853Z,1010.97
2017-07-29T02:32:08.406Z,1010.97
2017-07-29T02:33:17.609Z,1010.99
2017-07-29T02:34:26.813Z,1011.01
2017-07-29T02:35:36.023Z,1010.98
2017-07-29T02:36:45.225Z,1010.99
2017-07-29T02:37:54.859Z,1011
2017-07-29T02:39:04.387Z,1010.99
2017-07-29T02:40:13.591Z,1010.98
2017-07-29T02:41:23.225Z,1010.97
2017-07-29T02:42:33.077Z,1010.95
2017-07-29T02:43:42.630Z,1010.96
2017-07-29T02:44:51.835Z,1010.93
2017-07-29T02:46:01.040Z,1010.96
2017-07-29T02:47:10.354Z,1010.97
2017-07-29T02:48:19.561Z,1010.93
2017-07-29T02:49:29.417Z,1011
2017-07-29T02:50:38.946Z,1010.98
2017-07-29T02:51:48.156Z,1010.96
2017-07-29T02:52:57.415Z,1010.89
2017-07-29T02:54:06.947Z,1010.9
2017-07-29T02:55:16.159Z,1010.86
2017-07-29T02:56:25.695Z,1010.85
2017-07-29T02:57:35.545Z,1010.83
2017-07-29T02:58:45.244Z,1010.8
2017-07-29T02:59:54.448Z,1010.79
2017-07-29T03:01:03.986Z,1010.77
2017-07-29T03:02:13.189Z,1010.71
2017-07-29T03:03:22.392Z,1010.64
2017-07-29T03:04:32.490Z,1010.66
2017-07-29T03:05:41.369Z,1010.63
2017-07-29T03:06:50.895Z,1010.64
2017-07-29T03:08:00.104Z,1010.7
2017-07-29T03:09:09.631Z,1010.7
2017-07-29T03:10:19.634Z,1010.69
2017-07-29T03:11:29.161Z,1010.66
2017-07-29T03:12:39.015Z,1010.71
2017-07-29T03:13:48.221Z,1010.67
2017-07-29T03:14:57.760Z,1010.65
2017-07-29T03:16:07.763Z,1010.62
2017-07-29T03:17:17.616Z,1010.63
2017-07-29T03:18:26.505Z,1010.59
2017-07-29T03:19:35.712Z,1010.62
2017-07-29T03:20:44.929Z,1010.64
2017-07-29T03:21:54.129Z,1010.66
2017-07-29T03:23:03.338Z,1010.62
2017-07-29T03:24:12.558Z,1010.64
2017-07-29T03:25:21.763Z,1010.62
2017-07-29T03:26:31.290Z,1010.67
2017-07-29T03:27:40.654Z,1010.67
2017-07-29T03:28:49.535Z,1010.68
2017-07-29T03:29:58.742Z,1010.68
2017-07-29T03:31:08.606Z,1010.66
2017-07-29T03:32:19.133Z,1010.65
2017-07-29T03:33:28.166Z,1010.71
2017-07-29T03:34:37.370Z,1010.66
2017-07-29T03:35:46.911Z,1010.65
2017-07-29T03:36:56.760Z,1010.68
2017-07-29T03:38:05.648Z,1010.64
2017-07-29T03:39:14.581Z,1010.57
2017-07-29T03:40:24.110Z,1010.58
2017-07-29T03:41:33.964Z,1010.63
2017-07-29T03:42:43.505Z,1010.64
2017-07-29T03:43:53.048Z,1010.64
2017-07-29T03:45:03.224Z,1010.67
2017-07-29T03:46:12.106Z,1010.64
2017-07-29T03:47:21.633Z,1010.66
2017-07-29T03:48:31.166Z,1010.64
2017-07-29T03:49:40.368Z,1010.58
2017-07-29T03:50:50.058Z,1010.62
2017-07-29T03:51:59.586Z,1010.57
2017-07-29T03:53:08.788Z,1010.56
2017-07-29T03:54:18.642Z,1010.6
2017-07-29T03:55:27.528Z,1010.56
2017-07-29T03:56:37.209Z,1010.54
2017-07-29T03:57:46.427Z,1010.55
2017-07-29T03:58:55.307Z,1010.55
2017-07-29T04:00:04.840Z,1010.56
2017-07-29T04:01:14.046Z,1010.46
2017-07-29T04:02:23.848Z,1010.51
2017-07-29T04:03:33.052Z,1010.44
2017-07-29T04:04:43.236Z,1010.41
2017-07-29T04:05:52.767Z,1010.37
2017-07-29T04:07:01.969Z,1010.32
2017-07-29T04:08:10.904Z,1010.31
2017-07-29T04:09:20.111Z,1010.32
2017-07-29T04:10:28.991Z,1010.26
2017-07-29T04:11:38.195Z,1010.28
2017-07-29T04:12:47.733Z,1010.31
2017-07-29T04:13:57.417Z,1010.29
2017-07-29T04:15:07.594Z,1010.29
2017-07-29T04:16:17.119Z,1010.24
2017-07-29T04:17:26.647Z,1010.28
2017-07-29T04:18:35.851Z,1010.28
2017-07-29T04:19:45.106Z,1010.32
2017-07-29T04:20:53.988Z,1010.31
2017-07-29T04:22:03.514Z,1010.4
2017-07-29T04:23:13.045Z,1010.38
2017-07-29T04:24:22.250Z,1010.37
2017-07-29T04:25:32.088Z,1010.36
2017-07-29T04:26:41.296Z,1010.36
2017-07-29T04:27:50.510Z,1010.38
2017-07-29T04:28:59.722Z,1010.35
2017-07-29T04:30:09.249Z,1010.32
2017-07-29T04:31:18.709Z,1010.29
2017-07-29T04:32:27.595Z,1010.24
2017-07-29T04:33:36.805Z,1010.2
2017-07-29T04:34:45.687Z,1010.16
2017-07-29T04:35:54.584Z,1010.16
2017-07-29T04:37:04.122Z,1010.07
2017-07-29T04:38:13.328Z,1010.07
2017-07-29T04:39:22.534Z,1010.06
2017-07-29T04:40:31.741Z,1010.13
2017-07-29T04:41:41.272Z,1010.11
2017-07-29T04:42:50.677Z,1010.06
2017-07-29T04:44:00.202Z,1010.02
2017-07-29T04:45:10.052Z,1010.06
2017-07-29T04:46:18.930Z,1010.01
2017-07-29T04:47:28.141Z,1010.07
2017-07-29T04:48:37.443Z,1010
2017-07-29T04:49:46.979Z,1010.02
2017-07-29T04:50:56.532Z,1010.07
2017-07-29T04:52:06.387Z,1010.06
2017-07-29T04:53:16.234Z,1010.04
2017-07-29T04:54:25.435Z,1010.01
2017-07-29T04:55:34.316Z,1009.96
2017-07-29T04:56:43.526Z,1009.92
2017-07-29T04:57:52.731Z,1009.92
2017-07-29T04:59:02.262Z,1009.92
2017-07-29T05:00:11.500Z,1009.95
2017-07-29T05:01:21.035Z,1009.89
2017-07-29T05:02:30.896Z,1009.9
2017-07-29T05:03:40.774Z,1009.89
2017-07-29T05:04:49.660Z,1009.86
2017-07-29T05:05:58.962Z,1009.86
2017-07-29T05:07:07.845Z,1009.87
2017-07-29T05:08:17.049Z,1009.86
2017-07-29T05:09:26.248Z,1009.85
2017-07-29T05:10:35.457Z,1009.87
2017-07-29T05:11:45.122Z,1009.81
2017-07-29T05:12:54.333Z,1009.83
2017-07-29T05:14:03.553Z,1009.84
2017-07-29T05:15:13.091Z,1009.82
2017-07-29T05:16:22.297Z,1009.84
2017-07-29T05:17:31.379Z,1009.85
2017-07-29T05:18:40.904Z,1009.87
2017-07-29T05:19:49.785Z,1009.89
2017-07-29T05:20:58.987Z,1009.85
2017-07-29T05:22:08.853Z,1009.86
2017-07-29T05:23:18.382Z,1009.88
2017-07-29T05:24:28.242Z,1009.91
2017-07-29T05:25:37.443Z,1009.91
2017-07-29T05:26:46.648Z,1009.89
2017-07-29T05:27:56.187Z,1009.88
2017-07-29T05:29:05.554Z,1009.86
2017-07-29T05:30:15.082Z,1009.79
2017-07-29T05:31:24.288Z,1009.84
2017-07-29T05:32:33.495Z,1009.86
2017-07-29T05:33:42.375Z,1009.82
2017-07-29T05:34:51.881Z,1009.82
2017-07-29T05:36:00.765Z,1009.81
2017-07-29T05:37:10.945Z,1009.83
2017-07-29T05:38:20.153Z,1009.82
2017-07-29T05:39:29.036Z,1009.84
2017-07-29T05:40:38.544Z,1009.82
2017-07-29T05:41:47.440Z,1009.8
2017-07-29T05:42:56.323Z,1009.75
2017-07-29T05:44:05.849Z,1009.76
2017-07-29T05:45:15.698Z,1009.71
2017-07-29T05:46:25.747Z,1009.7
2017-07-29T05:47:34.627Z,1009.7
2017-07-29T05:48:44.481Z,1009.77
2017-07-29T05:49:53.364Z,1009.76
2017-07-29T05:51:02.247Z,1009.75
2017-07-29T05:52:11.873Z,1009.77
2017-07-29T05:53:21.076Z,1009.76
2017-07-29T05:54:30.280Z,1009.77
2017-07-29T05:55:39.808Z,1009.79
2017-07-29T05:56:49.015Z,1009.8
2017-07-29T05:57:58.374Z,1009.77
2017-07-29T05:59:07.911Z,1009.77
2017-07-29T06:00:17.116Z,1009.73
2017-07-29T06:01:26.320Z,1009.68
2017-07-29T06:02:35.201Z,1009.7
2017-07-29T06:03:44.527Z,1009.7
2017-07-29T06:04:54.057Z,1009.66
2017-07-29T06:06:03.589Z,1009.69
2017-07-29T06:07:12.798Z,1009.65
2017-07-29T06:08:21.687Z,1009.66
2017-07-29T06:09:30.722Z,1009.68
2017-07-29T06:10:40.574Z,1009.71
2017-07-29T06:11:50.447Z,1009.71
2017-07-29T06:12:59.650Z,1009.7
2017-07-29T06:14:08.527Z,1009.72
2017-07-29T06:15:17.889Z,1009.75
2017-07-29T06:16:27.096Z,1009.72
2017-07-29T06:17:36.304Z,1009.71
2017-07-29T06:18:45.830Z,1009.71
2017-07-29T06:19:55.034Z,1009.74
2017-07-29T06:21:04.241Z,1009.73
2017-07-29T06:22:13.768Z,1009.7
2017-07-29T06:23:23.625Z,1009.77
2017-07-29T06:24:32.833Z,1009.75
2017-07-29T06:25:42.040Z,1009.8
2017-07-29T06:26:52.055Z,1009.76
2017-07-29T06:28:00.942Z,1009.75
2017-07-29T06:29:10.149Z,1009.77
2017-07-29T06:30:19.356Z,1009.78
2017-07-29T06:31:28.237Z,1009.77
2017-07-29T06:32:37.226Z,1009.71
2017-07-29T06:33:46.115Z,1009.66
2017-07-29T06:34:55.323Z,1009.77
2017-07-29T06:36:04.202Z,1009.74
2017-07-29T06:37:13.737Z,1009.8
2017-07-29T06:38:22.991Z,1009.77
2017-07-29T06:39:32.214Z,1009.81
2017-07-29T06:40:41.418Z,1009.81
2017-07-29T06:41:50.621Z,1009.82
2017-07-29T06:42:59.823Z,1009.78
2017-07-29T06:44:09.034Z,1009.73
2017-07-29T06:45:18.896Z,1009.72
2017-07-29T06:46:28.104Z,1009.74
2017-07-29T06:47:36.983Z,1009.75
2017-07-29T06:48:45.860Z,1009.71
2017-07-29T06:49:54.895Z,1009.76
2017-07-29T06:51:04.102Z,1009.86
2017-07-29T06:52:13.950Z,1009.77
2017-07-29T06:53:24.128Z,1009.81
2017-07-29T06:54:33.980Z,1009.82
2017-07-29T06:55:43.339Z,1009.86
2017-07-29T06:56:52.223Z,1009.85
2017-07-29T06:58:01.427Z,1009.82
2017-07-29T06:59:10.645Z,1009.86
2017-07-29T07:00:20.498Z,1009.82
2017-07-29T07:01:30.180Z,1009.84
2017-07-29T07:02:39.086Z,1009.86
2017-07-29T07:03:48.293Z,1009.88
2017-07-29T07:04:57.184Z,1009.81
2017-07-29T07:06:06.118Z,1009.86
2017-07-29T07:07:15.797Z,1009.82
2017-07-29T07:08:25.006Z,1009.85
2017-07-29T07:09:34.213Z,1009.84
2017-07-29T07:10:44.065Z,1009.92
2017-07-29T07:11:52.950Z,1009.94
2017-07-29T07:13:02.483Z,1009.93
2017-07-29T07:14:11.695Z,1009.99
2017-07-29T07:15:20.578Z,1009.97
2017-07-29T07:16:29.789Z,1009.96
2017-07-29T07:17:38.998Z,1010
2017-07-29T07:18:48.033Z,1010.03
2017-07-29T07:19:56.915Z,1009.96
2017-07-29T07:21:07.111Z,1009.95
2017-07-29T07:22:16.641Z,1009.94
2017-07-29T07:23:26.169Z,1009.99
2017-07-29T07:24:35.750Z,1010.04
2017-07-29T07:25:44.953Z,1010.04
2017-07-29T07:26:54.482Z,1010.03
2017-07-29T07:28:04.034Z,1009.99
2017-07-29T07:29:13.241Z,1009.97
2017-07-29T07:30:23.254Z,1010
2017-07-29T07:31:33.108Z,1009.93
2017-07-29T07:32:42.312Z,1010.01
2017-07-29T07:33:52.165Z,1009.97
2017-07-29T07:35:02.019Z,1010.01
2017-07-29T07:36:11.708Z,1010.1
2017-07-29T07:37:21.235Z,1010.07
2017-07-29T07:38:30.440Z,1010.12
2017-07-29T07:39:39.322Z,1010.04
2017-07-29T07:40:48.524Z,1010.07
2017-07-29T07:41:57.738Z,1010.04
2017-07-29T07:43:07.270Z,1010.08
2017-07-29T07:44:16.158Z,1010.1
2017-07-29T07:45:26.021Z,1010.07
2017-07-29T07:46:34.906Z,1010.09
2017-07-29T07:47:44.585Z,1010.12
2017-07-29T07:48:54.122Z,1010.19
2017-07-29T07:50:03.331Z,1010.25
2017-07-29T07:51:13.507Z,1010.23
2017-07-29T07:52:22.716Z,1010.18
2017-07-29T07:53:32.074Z,1010.17
2017-07-29T07:54:41.283Z,1010.18
2017-07-29T07:55:50.816Z,1010.24
2017-07-29T07:57:00.021Z,1010.16
2017-07-29T07:58:09.551Z,1010.18
2017-07-29T07:59:18.908Z,1010.29
2017-07-29T08:00:27.816Z,1010.22
2017-07-29T08:01:37.021Z,1010.23
2017-07-29T08:02:45.906Z,1010.28
2017-07-29T08:03:55.112Z,1010.28
2017-07-29T08:05:04.692Z,1010.27
2017-07-29T08:06:13.905Z,1010.33
2017-07-29T08:07:23.112Z,1010.28
2017-07-29T08:08:31.994Z,1010.3
2017-07-29T08:09:40.877Z,1010.37
2017-07-29T08:10:50.183Z,1010.29
2017-07-29T08:11:59.397Z,1010.22
2017-07-29T08:13:09.252Z,1010.31
2017-07-29T08:14:18.465Z,1010.29
2017-07-29T08:15:27.999Z,1010.21
2017-07-29T08:16:37.352Z,1010.25
2017-07-29T08:17:46.884Z,1010.32
2017-07-29T08:18:56.744Z,1010.27
2017-07-29T08:20:06.296Z,1010.32
2017-07-29T08:21:15.825Z,1010.39
2017-07-29T08:22:25.174Z,1010.39
2017-07-29T08:23:34.708Z,1010.4
2017-07-29T08:24:44.243Z,1010.39
2017-07-29T08:25:54.097Z,1010.39
2017-07-29T08:27:03.307Z,1010.4
2017-07-29T08:28:13.461Z,1010.39
2017-07-29T08:29:22.695Z,1010.4
2017-07-29T08:30:32.225Z,1010.37
2017-07-29T08:31:41.802Z,1010.39
2017-07-29T08:32:51.665Z,1010.36
2017-07-29T08:34:00.852Z,1010.39
2017-07-29T08:35:10.112Z,1010.43
2017-07-29T08:36:19.317Z,1010.42
2017-07-29T08:37:28.854Z,1010.42
2017-07-29T08:38:37.749Z,1010.47
2017-07-29T08:39:47.282Z,1010.45
2017-07-29T08:40:56.493Z,1010.49
2017-07-29T08:42:06.025Z,1010.47
2017-07-29T08:43:15.568Z,1010.5
2017-07-29T08:44:24.779Z,1010.61
2017-07-29T08:45:34.939Z,1010.56
2017-07-29T08:46:44.474Z,1010.58
2017-07-29T08:47:53.680Z,1010.61
2017-07-29T08:49:03.536Z,1010.62
2017-07-29T08:50:13.068Z,1010.68
2017-07-29T08:51:22.528Z,1010.65
2017-07-29T08:52:32.062Z,1010.64
2017-07-29T08:53:41.279Z,1010.7
2017-07-29T08:54:50.525Z,1010.73
2017-07-29T08:55:59.732Z,1010.7
2017-07-29T08:57:08.624Z,1010.73
2017-07-29T08:58:18.155Z,1010.69
2017-07-29T08:59:27.365Z,1010.74
2017-07-29T09:00:36.895Z,1010.73
2017-07-29T09:01:46.749Z,1010.72
2017-07-29T09:02:56.107Z,1010.69
2017-07-29T09:04:05.962Z,1010.66
2017-07-29T09:05:15.500Z,1010.68
2017-07-29T09:06:25.030Z,1010.73
2017-07-29T09:07:35.212Z,1010.68
2017-07-29T09:08:44.896Z,1010.71
2017-07-29T09:09:54.755Z,1010.74
2017-07-29T09:11:04.282Z,1010.67
2017-07-29T09:12:13.491Z,1010.67
2017-07-29T09:13:22.696Z,1010.69
2017-07-29T09:14:31.580Z,1010.67
2017-07-29T09:15:40.467Z,1010.7
2017-07-29T09:16:50.003Z,1010.63
2017-07-29T09:17:58.893Z,1010.66
2017-07-29T09:19:08.421Z,1010.63
2017-07-29T09:20:18.426Z,1010.66
2017-07-29T09:21:27.642Z,1010.64
2017-07-29T09:22:36.854Z,1010.66
2017-07-29T09:23:46.386Z,1010.67
2017-07-29T09:24:55.924Z,1010.64
2017-07-29T09:26:05.279Z,1010.66
2017-07-29T09:27:15.138Z,1010.64
2017-07-29T09:28:24.347Z,1010.66
2017-07-29T09:29:33.553Z,1010.64
2017-07-29T09:30:42.753Z,1010.68
2017-07-29T09:31:52.264Z,1010.65
2017-07-29T09:33:02.444Z,1010.73
2017-07-29T09:34:11.979Z,1010.68
2017-07-29T09:35:21.515Z,1010.72
2017-07-29T09:36:30.729Z,1010.71
2017-07-29T09:37:40.089Z,1010.7
2017-07-29T09:38:49.305Z,1010.75
2017-07-29T09:39:58.833Z,1010.74
2017-07-29T09:41:08.371Z,1010.74
2017-07-29T09:42:17.584Z,1010.79
2017-07-29T09:43:26.843Z,1010.72
2017-07-29T09:44:36.696Z,1010.65
2017-07-29T09:45:46.559Z,1010.76
2017-07-29T09:46:55.765Z,1010.72
2017-07-29T09:48:05.625Z,1010.7
2017-07-29T09:49:14.661Z,1010.78
2017-07-29T09:50:23.568Z,1010.75
2017-07-29T09:51:32.775Z,1010.81
2017-07-29T09:52:41.980Z,1010.78
2017-07-29T09:53:51.191Z,1010.73
2017-07-29T09:55:00.876Z,1010.83
2017-07-29T09:56:10.410Z,1010.78
2017-07-29T09:57:19.621Z,1010.8
2017-07-29T09:58:29.155Z,1010.75
2017-07-29T09:59:38.365Z,1010.81
2017-07-29T10:00:47.724Z,1010.87
2017-07-29T10:01:56.939Z,1010.85
2017-07-29T10:03:06.472Z,1010.83
2017-07-29T10:04:15.677Z,1010.9
2017-07-29T10:05:24.884Z,1010.94
2017-07-29T10:06:34.569Z,1010.93
2017-07-29T10:07:43.779Z,1010.93
2017-07-29T10:08:52.663Z,1010.91
2017-07-29T10:10:01.553Z,1010.93
2017-07-29T10:11:11.092Z,1010.94
2017-07-29T10:12:19.975Z,1010.93
2017-07-29T10:13:29.189Z,1010.91
2017-07-29T10:14:39.066Z,1010.98
2017-07-29T10:15:48.277Z,1010.97
2017-07-29T10:16:57.816Z,1010.94
2017-07-29T10:18:07.021Z,1010.95
2017-07-29T10:19:16.549Z,1010.95
2017-07-29T10:20:26.081Z,1010.95
2017-07-29T10:21:35.937Z,1011.04
2017-07-29T10:22:45.471Z,1011.04
2017-07-29T10:23:54.680Z,1011.06
2017-07-29T10:25:03.892Z,1011.11
2017-07-29T10:26:13.428Z,1011.07
2017-07-29T10:27:22.636Z,1011.07
2017-07-29T10:28:31.846Z,1011.03
2017-07-29T10:29:41.053Z,1011.08
2017-07-29T10:30:50.261Z,1011.05
2017-07-29T10:31:59.791Z,1011.08
2017-07-29T10:33:08.997Z,1011.08
2017-07-29T10:34:18.851Z,1011.1
2017-07-29T10:35:27.886Z,1011.05
2017-07-29T10:36:37.091Z,1011.04
2017-07-29T10:37:46.298Z,1011.05
2017-07-29T10:38:55.516Z,1011
2017-07-29T10:40:04.412Z,1011.07
2017-07-29T10:41:13.399Z,1010.99
2017-07-29T10:42:22.610Z,1011.03
2017-07-29T10:43:31.843Z,1011.05
2017-07-29T10:44:41.057Z,1011.08
2017-07-29T10:45:50.265Z,1011.09
2017-07-29T10:47:00.095Z,1011.08
2017-07-29T10:48:09.302Z,1011.11
2017-07-29T10:49:18.512Z,1011.05
2017-07-29T10:50:27.717Z,1011.11
2017-07-29T10:51:37.255Z,1011.09
2017-07-29T10:52:46.622Z,1011.1
2017-07-29T10:53:55.834Z,1011.11
2017-07-29T10:55:05.686Z,1011.1
2017-07-29T10:56:15.221Z,1011.16
2017-07-29T10:57:24.105Z,1011.19
2017-07-29T10:58:33.461Z,1011.19
2017-07-29T10:59:42.999Z,1011.13
2017-07-29T11:00:52.207Z,1011.19
2017-07-29T11:02:01.742Z,1011.21
2017-07-29T11:03:10.626Z,1011.2
2017-07-29T11:04:20.259Z,1011.26
2017-07-29T11:05:29.788Z,1011.23
2017-07-29T11:06:39.002Z,1011.23
2017-07-29T11:07:48.532Z,1011.27
2017-07-29T11:08:57.739Z,1011.26
2017-07-29T11:10:07.894Z,1011.26
2017-07-29T11:11:17.109Z,1011.32
2017-07-29T11:12:25.993Z,1011.31
2017-07-29T11:13:35.850Z,1011.27
2017-07-29T11:14:45.061Z,1011.31
2017-07-29T11:15:54.351Z,1011.27
2017-07-29T11:17:03.233Z,1011.29
2017-07-29T11:18:12.115Z,1011.28
2017-07-29T11:19:21.649Z,1011.3
2017-07-29T11:20:30.897Z,1011.32
2017-07-29T11:21:40.213Z,1011.32
2017-07-29T11:22:49.758Z,1011.33
2017-07-29T11:23:58.646Z,1011.32
2017-07-29T11:25:08.210Z,1011.33
2017-07-29T11:26:17.743Z,1011.38
2017-07-29T11:27:26.958Z,1011.37
2017-07-29T11:28:35.848Z,1011.38
2017-07-29T11:29:44.733Z,1011.35
2017-07-29T11:30:54.274Z,1011.37
2017-07-29T11:32:03.489Z,1011.45
2017-07-29T11:33:12.908Z,1011.39
2017-07-29T11:34:22.441Z,1011.34
2017-07-29T11:35:31.333Z,1011.35
2017-07-29T11:36:40.217Z,1011.41
2017-07-29T11:37:50.083Z,1011.36
2017-07-29T11:38:59.918Z,1011.39
2017-07-29T11:40:09.453Z,1011.43
2017-07-29T11:41:18.982Z,1011.37
2017-07-29T11:42:28.516Z,1011.44
2017-07-29T11:43:38.372Z,1011.34
2017-07-29T11:44:47.953Z,1011.45
2017-07-29T11:45:56.838Z,1011.44
2017-07-29T11:47:06.426Z,1011.47
2017-07-29T11:48:15.312Z,1011.38
2017-07-29T11:49:24.843Z,1011.43
2017-07-29T11:50:34.434Z,1011.48
2017-07-29T11:51:43.970Z,1011.46
2017-07-29T11:52:53.531Z,1011.52
2017-07-29T11:54:03.421Z,1011.55
2017-07-29T11:55:12.635Z,1011.56
2017-07-29T11:56:22.266Z,1011.58
2017-07-29T11:57:31.793Z,1011.6
2017-07-29T11:58:41.328Z,1011.59
2017-07-29T11:59:51.181Z,1011.63
2017-07-29T12:01:00.393Z,1011.65
2017-07-29T12:02:09.801Z,1011.68
2017-07-29T12:03:19.657Z,1011.74
2017-07-29T12:04:29.511Z,1011.72
2017-07-29T12:05:38.721Z,1011.78
2017-07-29T12:06:47.605Z,1011.86
2017-07-29T12:07:56.922Z,1011.87
2017-07-29T12:09:06.453Z,1011.86
2017-07-29T12:10:15.667Z,1011.88
2017-07-29T12:11:25.200Z,1011.92
2017-07-29T12:12:34.413Z,1011.92
2017-07-29T12:13:44.120Z,1011.94
2017-07-29T12:14:53.011Z,1011.93
2017-07-29T12:16:02.543Z,1011.89
2017-07-29T12:17:11.756Z,1011.93
2017-07-29T12:18:21.612Z,1011.95
2017-07-29T12:19:31.294Z,1011.91
2017-07-29T12:20:40.178Z,1011.99
2017-07-29T12:21:49.398Z,1011.97
2017-07-29T12:22:58.280Z,1011.93
2017-07-29T12:24:07.164Z,1011.98
2017-07-29T12:25:17.025Z,1012.06
2017-07-29T12:26:26.243Z,1012.03
2017-07-29T12:27:35.776Z,1012
2017-07-29T12:28:45.309Z,1012.08
2017-07-29T12:29:54.860Z,1012.07
2017-07-29T12:31:04.693Z,1012.1
2017-07-29T12:32:13.909Z,1012.2
2017-07-29T12:33:23.444Z,1012.26
2017-07-29T12:34:32.980Z,1012.33
2017-07-29T12:35:42.194Z,1012.3
2017-07-29T12:36:51.983Z,1012.34
2017-07-29T12:38:01.858Z,1012.36
2017-07-29T12:39:10.754Z,1012.35
2017-07-29T12:40:20.608Z,1012.38
2017-07-29T12:41:29.816Z,1012.37
2017-07-29T12:42:38.801Z,1012.41
2017-07-29T12:43:48.008Z,1012.38
2017-07-29T12:44:57.536Z,1012.34
2017-07-29T12:46:07.061Z,1012.35
2017-07-29T12:47:15.948Z,1012.33
2017-07-29T12:48:26.115Z,1012.35
2017-07-29T12:49:35.644Z,1012.39
2017-07-29T12:50:44.524Z,1012.33
2017-07-29T12:51:53.740Z,1012.41
2017-07-29T12:53:03.269Z,1012.43
2017-07-29T12:54:13.449Z,1012.45
2017-07-29T12:55:22.659Z,1012.47
2017-07-29T12:56:31.544Z,1012.52
2017-07-29T12:57:41.072Z,1012.59
2017-07-29T12:58:50.284Z,1012.58
2017-07-29T12:59:59.688Z,1012.69
2017-07-29T13:01:08.894Z,1012.66
2017-07-29T13:02:18.102Z,1012.72
2017-07-29T13:03:27.630Z,1012.7
2017-07-29T13:04:37.166Z,1012.64
2017-07-29T13:05:46.853Z,1012.74
2017-07-29T13:06:55.753Z,1012.63
2017-07-29T13:08:04.634Z,1012.63
2017-07-29T13:09:13.519Z,1012.63
2017-07-29T13:10:23.048Z,1012.59
2017-07-29T13:11:32.306Z,1012.55
2017-07-29T13:12:41.835Z,1012.6
2017-07-29T13:13:50.724Z,1012.6
2017-07-29T13:14:59.936Z,1012.59
2017-07-29T13:16:09.468Z,1012.58
2017-07-29T13:17:18.825Z,1012.57
2017-07-29T13:18:27.713Z,1012.6
2017-07-29T13:19:37.254Z,1012.59
2017-07-29T13:20:46.141Z,1012.58
2017-07-29T13:21:55.348Z,1012.61
2017-07-29T13:23:05.357Z,1012.65
2017-07-29T13:24:14.574Z,1012.59
2017-07-29T13:25:23.778Z,1012.55
2017-07-29T13:26:33.307Z,1012.49
2017-07-29T13:27:42.836Z,1012.52
2017-07-29T13:28:52.022Z,1012.5
2017-07-29T13:30:01.233Z,1012.5
2017-07-29T13:31:11.088Z,1012.55
2017-07-29T13:32:20.624Z,1012.54
2017-07-29T13:33:29.504Z,1012.52
2017-07-29T13:34:38.389Z,1012.47
2017-07-29T13:35:48.250Z,1012.5
2017-07-29T13:36:57.460Z,1012.49
2017-07-29T13:38:06.667Z,1012.47
2017-07-29T13:39:16.525Z,1012.45
2017-07-29T13:40:25.506Z,1012.51
2017-07-29T13:41:34.717Z,1012.53
2017-07-29T13:42:44.576Z,1012.55
2017-07-29T13:43:54.109Z,1012.54
2017-07-29T13:45:03.318Z,1012.48
2017-07-29T13:46:13.001Z,1012.57
2017-07-29T13:47:22.210Z,1012.48
2017-07-29T13:48:31.421Z,1012.47
2017-07-29T13:49:40.636Z,1012.45
2017-07-29T13:50:49.849Z,1012.68
2017-07-29T13:51:59.723Z,1012.45
2017-07-29T13:53:08.663Z,1012.5
2017-07-29T13:54:17.874Z,1012.45
2017-07-29T13:55:27.404Z,1012.46
2017-07-29T13:56:37.266Z,1012.44
2017-07-29T13:57:46.629Z,1012.4
2017-07-29T13:58:55.848Z,1012.37
2017-07-29T14:00:05.380Z,1012.3
2017-07-29T14:01:14.594Z,1012.35
2017-07-29T14:02:23.809Z,1012.42